Time;durP1;ratioP1;P1;durP2;ratioP2;P2;SDS_P1;SDS_P2;PMS_P1;PMS_P2;Temp;Humidity;BMP_temperature;BMP_pressure;BME280_temperature;BME280_humidity;BME280_pressure;Samples;Min_cycle;Max_cycle;Signal;HPM_P1;HPM_P2
2023/03/21 00:02:15;;;;;;;22.48;18.00;;;;;;;;;;10293907;28;20112;-62
2023/03/21 00:07:13;;;;;;;23.40;18.23;;;;;;;;;;10292122;28;20087;-61
2023/03/21 00:12:13;;;;;;;19.02;13.95;;;;;;;;;;10293340;28;20453;-61
2023/03/21 00:17:14;;;;;;;19.58;16.10;;;;;;;;;;10291349;28;20068;-63
2023/03/21 00:22:12;;;;;;;17.83;14.02;;;;;;;;;;10293038;28;20072;-63
2023/03/21 00:27:12;;;;;;;22.55;18.48;;;;;;;;;;10291223;28;20496;-62
2023/03/21 00:32:32;;;;;;;18.48;14.52;;;;;;;;;;10291591;28;20630;-63
2023/03/21 00:37:36;;;;;;;23.88;16.77;;;;;;;;;;10292093;28;20094;-62
2023/03/21 00:42:35;;;;;;;24.30;17.95;;;;;;;;;;10292391;28;20069;-62
2023/03/21 00:47:35;;;;;;;19.63;15.00;;;;;;;;;;10291246;28;20488;-62
2023/03/21 00:52:33;;;;;;;17.05;13.02;;;;;;;;;;10291878;28;20087;-61
2023/03/21 00:57:38;;;;;;;19.42;13.10;;;;;;;;;;10291121;28;20517;-62
2023/03/21 01:02:41;;;;;;;20.23;13.00;;;;;;;;;;10290137;28;20075;-61
2023/03/21 01:07:42;;;;;;;19.20;12.50;;;;;;;;;;10291329;28;20497;-62
2023/03/21 01:12:40;;;;;;;20.83;17.88;;;;;;;;;;10290280;28;20072;-63
2023/03/21 01:17:39;;;;;;;24.35;17.88;;;;;;;;;;10287227;28;20079;-63
2023/03/21 01:22:37;;;;;;;20.10;15.77;;;;;;;;;;10296203;28;22030;-62
2023/03/21 01:27:35;;;;;;;22.35;15.85;;;;;;;;;;10290382;28;20072;-62
2023/03/21 01:32:34;;;;;;;19.95;14.35;;;;;;;;;;10289808;28;20045;-61
2023/03/21 01:37:34;;;;;;;27.95;16.67;;;;;;;;;;10296272;28;20443;-61
2023/03/21 01:42:32;;;;;;;23.63;16.50;;;;;;;;;;10291244;28;20068;-62
2023/03/21 01:47:31;;;;;;;27.02;19.27;;;;;;;;;;10287123;28;20503;-62
2023/03/21 01:52:38;;;;;;;26.00;17.58;;;;;;;;;;10295660;28;20439;-63
2023/03/21 01:57:45;;;;;;;20.42;13.68;;;;;;;;;;10285399;28;20524;-62
2023/03/21 02:03:03;;;;;;;16.23;13.20;;;;;;;;;;10286815;28;20065;-63
2023/03/21 02:08:28;;;;;;;19.05;13.43;;;;;;;;;;10293701;28;20084;-61
2023/03/21 02:13:39;;;;;;;20.13;15.02;;;;;;;;;;10297286;28;20079;-62
2023/03/21 02:18:46;;;;;;;21.85;16.52;;;;;;;;;;10299066;28;20431;-62
2023/03/21 02:24:02;;;;;;;26.83;18.60;;;;;;;;;;10292752;28;20383;-62
2023/03/21 02:29:02;;;;;;;19.80;16.80;;;;;;;;;;10293766;28;20506;-62
2023/03/21 02:34:21;;;;;;;26.40;16.13;;;;;;;;;;10295941;28;20076;-62
2023/03/21 02:39:26;;;;;;;41.47;26.33;;;;;;;;;;10311409;28;20489;-62
2023/03/21 02:44:26;;;;;;;31.50;18.17;;;;;;;;;;10312304;28;20076;-62
2023/03/21 02:49:27;;;;;;;46.88;28.98;;;;;;;;;;10311070;28;20450;-63
2023/03/21 02:54:28;;;;;;;28.88;19.63;;;;;;;;;;10290404;28;20069;-63
2023/03/21 02:59:45;;;;;;;31.65;21.58;;;;;;;;;;10292998;28;20079;-63
2023/03/21 03:04:59;;;;;;;19.75;12.75;;;;;;;;;;10297514;28;20053;-63
2023/03/21 03:10:25;;;;;;;16.40;13.02;;;;;;;;;;10295049;28;20064;-63
2023/03/21 03:15:30;;;;;;;17.07;12.60;;;;;;;;;;10255014;28;20080;-63
2023/03/21 03:20:32;;;;;;;23.60;14.10;;;;;;;;;;10293367;28;20080;-62
2023/03/21 03:25:35;;;;;;;18.27;12.20;;;;;;;;;;10295730;28;20080;-61
2023/03/21 03:30:46;;;;;;;21.50;14.65;;;;;;;;;;10294719;28;20084;-62
2023/03/21 03:36:09;;;;;;;21.85;15.48;;;;;;;;;;10294045;28;20045;-62
2023/03/21 03:41:29;;;;;;;21.38;15.07;;;;;;;;;;10293046;28;20060;-62
2023/03/21 03:46:53;;;;;;;27.27;22.38;;;;;;;;;;10292135;28;20088;-61
2023/03/21 03:51:54;;;;;;;31.83;21.38;;;;;;;;;;10293016;28;20521;-62
2023/03/21 03:56:58;;;;;;;22.77;16.67;;;;;;;;;;10296287;28;20080;-63
2023/03/21 04:01:58;;;;;;;23.45;17.25;;;;;;;;;;10298420;28;20072;-62
2023/03/21 04:06:56;;;;;;;24.20;17.48;;;;;;;;;;10296168;28;20076;-63
2023/03/21 04:11:55;;;;;;;28.23;16.75;;;;;;;;;;10287155;28;20087;-63
2023/03/21 04:16:54;;;;;;;39.75;25.92;;;;;;;;;;10288307;28;20127;-62
2023/03/21 04:21:54;;;;;;;30.13;19.92;;;;;;;;;;10286607;28;20123;-63
2023/03/21 04:26:53;;;;;;;29.98;20.25;;;;;;;;;;10295375;28;20068;-62
2023/03/21 04:32:16;;;;;;;27.67;19.55;;;;;;;;;;10289626;28;20080;-62
2023/03/21 04:37:23;;;;;;;32.60;17.40;;;;;;;;;;10296701;28;20067;-61
2023/03/21 04:42:23;;;;;;;26.85;17.65;;;;;;;;;;10291650;28;20091;-61
2023/03/21 04:47:21;;;;;;;25.55;16.10;;;;;;;;;;10289981;28;20076;-62
2023/03/21 04:52:21;;;;;;;31.05;19.50;;;;;;;;;;10287471;28;20529;-62
2023/03/21 04:57:23;;;;;;;23.08;16.40;;;;;;;;;;10294142;28;20068;-62
2023/03/21 05:02:21;;;;;;;40.10;30.02;;;;;;;;;;10293854;28;20068;-62
2023/03/21 05:07:25;;;;;;;60.40;42.53;;;;;;;;;;10291696;28;20552;-62
2023/03/21 05:12:26;;;;;;;29.35;19.77;;;;;;;;;;10288213;28;20084;-61
2023/03/21 05:17:27;;;;;;;29.27;21.27;;;;;;;;;;10291170;28;20483;-62
2023/03/21 05:22:27;;;;;;;42.15;26.75;;;;;;;;;;10287877;28;20076;-61
2023/03/21 05:27:34;;;;;;;28.63;21.65;;;;;;;;;;10282189;28;20484;-62
2023/03/21 05:32:38;;;;;;;26.27;17.48;;;;;;;;;;10291826;28;20089;-61
2023/03/21 05:37:40;;;;;;;28.92;20.30;;;;;;;;;;10286127;28;20509;-62
2023/03/21 05:42:40;;;;;;;21.92;18.73;;;;;;;;;;10290836;28;20056;-63
2023/03/21 05:47:51;;;;;;;35.65;25.90;;;;;;;;;;10284768;28;20092;-61
2023/03/21 05:52:53;;;;;;;30.70;19.02;;;;;;;;;;10287550;28;20565;-62
2023/03/21 05:57:53;;;;;;;28.70;19.70;;;;;;;;;;10286673;28;20082;-60
2023/03/21 06:02:58;;;;;;;35.30;20.73;;;;;;;;;;10279829;28;20080;-61
2023/03/21 06:08:07;;;;;;;25.70;17.45;;;;;;;;;;10291785;28;20076;-60
2023/03/21 06:13:07;;;;;;;26.38;19.30;;;;;;;;;;10292118;28;20067;-60
2023/03/21 06:18:06;;;;;;;24.60;16.38;;;;;;;;;;10284675;28;20084;-60
2023/03/21 06:23:07;;;;;;;48.35;34.05;;;;;;;;;;10288284;28;20093;-61
2023/03/21 06:28:06;;;;;;;24.02;17.02;;;;;;;;;;10279384;28;20072;-61
2023/03/21 06:33:10;;;;;;;25.45;18.13;;;;;;;;;;10296163;28;20084;-60
2023/03/21 06:38:08;;;;;;;28.88;17.90;;;;;;;;;;10291415;28;20091;-61
2023/03/21 06:43:08;;;;;;;29.73;20.80;;;;;;;;;;10288156;28;20069;-60
2023/03/21 06:48:06;;;;;;;29.15;19.52;;;;;;;;;;10291037;28;20510;-61
2023/03/21 06:53:33;;;;;;;31.95;24.38;;;;;;;;;;10288125;28;20548;-61
2023/03/21 06:58:51;;;;;;;34.92;21.80;;;;;;;;;;10296141;28;20485;-62
2023/03/21 07:04:12;;;;;;;40.30;21.75;;;;;;;;;;10295448;28;20080;-60
2023/03/21 07:09:12;;;;;;;43.30;20.50;;;;;;;;;;10291154;28;20076;-61
2023/03/21 07:14:12;;;;;;;43.92;26.80;;;;;;;;;;10292468;28;20465;-61
2023/03/21 07:19:10;;;;;;;32.50;21.05;;;;;;;;;;10287015;28;20056;-62
2023/03/21 07:24:08;;;;;;;34.30;20.50;;;;;;;;;;10288257;28;20529;-61
2023/03/21 07:29:08;;;;;;;31.08;21.83;;;;;;;;;;10300423;28;20084;-62
2023/03/21 07:34:06;;;;;;;35.60;22.38;;;;;;;;;;10289313;28;20091;-62
2023/03/21 07:39:05;;;;;;;30.65;20.65;;;;;;;;;;10298663;28;20092;-62
2023/03/21 07:44:03;;;;;;;30.95;22.20;;;;;;;;;;10297816;28;20079;-61
2023/03/21 07:49:07;;;;;;;30.73;19.83;;;;;;;;;;10288237;28;20079;-62
2023/03/21 07:54:06;;;;;;;26.30;19.98;;;;;;;;;;10292169;28;20081;-62
2023/03/21 07:59:04;;;;;;;27.33;20.00;;;;;;;;;;10292278;28;20076;-61
2023/03/21 08:04:02;;;;;;;25.30;18.05;;;;;;;;;;10294117;28;20080;-62
2023/03/21 08:09:03;;;;;;;33.40;19.05;;;;;;;;;;10295186;28;20497;-62
2023/03/21 08:14:01;;;;;;;26.52;19.02;;;;;;;;;;10294235;28;20075;-63
2023/03/21 08:18:59;;;;;;;36.63;21.63;;;;;;;;;;10290465;28;20471;-62
2023/03/21 08:23:57;;;;;;;45.28;22.17;;;;;;;;;;10291423;28;20064;-61
2023/03/21 08:28:57;;;;;;;29.58;18.30;;;;;;;;;;10291764;28;20095;-61
2023/03/21 08:33:55;;;;;;;37.55;21.85;;;;;;;;;;10288967;28;20499;-61
2023/03/21 08:38:55;;;;;;;30.20;19.02;;;;;;;;;;10291919;28;20080;-62
2023/03/21 08:43:54;;;;;;;33.45;19.75;;;;;;;;;;10289496;28;20095;-61
2023/03/21 08:48:54;;;;;;;34.65;19.23;;;;;;;;;;10289183;28;20747;-61
2023/03/21 08:53:52;;;;;;;40.40;21.45;;;;;;;;;;10290057;28;20072;-62
2023/03/21 08:58:50;;;;;;;28.40;19.40;;;;;;;;;;10289167;28;20075;-62
2023/03/21 09:03:48;;;;;;;28.25;18.88;;;;;;;;;;10292310;28;20072;-63
2023/03/21 09:08:51;;;;;;;29.10;16.42;;;;;;;;;;10287533;28;20072;-62
2023/03/21 09:13:49;;;;;;;30.00;16.92;;;;;;;;;;10290700;28;20079;-62
2023/03/21 09:18:49;;;;;;;29.15;17.55;;;;;;;;;;10287414;28;20068;-62
2023/03/21 09:23:51;;;;;;;24.63;17.23;;;;;;;;;;10289966;28;20459;-62
2023/03/21 09:28:50;;;;;;;22.08;15.52;;;;;;;;;;10289465;28;20527;-62
2023/03/21 09:33:48;;;;;;;20.45;14.82;;;;;;;;;;10287581;28;20513;-62
2023/03/21 09:38:47;;;;;;;19.63;13.38;;;;;;;;;;10286281;28;20538;-62
2023/03/21 09:43:54;;;;;;;16.75;13.93;;;;;;;;;;10287943;28;20463;-62
2023/03/21 09:48:56;;;;;;;24.33;15.85;;;;;;;;;;10289726;28;20076;-62
2023/03/21 09:53:57;;;;;;;22.80;15.25;;;;;;;;;;10286668;28;20099;-62
2023/03/21 09:58:59;;;;;;;22.35;13.82;;;;;;;;;;10287210;28;20065;-62
2023/03/21 10:03:59;;;;;;;19.38;14.30;;;;;;;;;;10283857;28;20068;-62
2023/03/21 10:09:00;;;;;;;20.88;13.50;;;;;;;;;;10288525;28;20072;-61
2023/03/21 10:14:02;;;;;;;15.00;13.07;;;;;;;;;;10289986;28;20080;-62
2023/03/21 10:19:02;;;;;;;17.38;12.38;;;;;;;;;;10290021;28;20065;-62
2023/03/21 10:24:01;;;;;;;18.08;14.52;;;;;;;;;;10292509;28;20064;-62
2023/03/21 10:29:02;;;;;;;21.42;12.80;;;;;;;;;;10288260;28;20064;-63
2023/03/21 10:34:03;;;;;;;22.73;14.10;;;;;;;;;;10296402;28;21021;-63
2023/03/21 10:39:03;;;;;;;29.05;14.95;;;;;;;;;;10296265;28;20309;-62
2023/03/21 10:44:07;;;;;;;22.23;14.32;;;;;;;;;;10295680;28;20060;-63
2023/03/21 10:49:07;;;;;;;24.95;15.40;;;;;;;;;;10293954;28;20076;-63
2023/03/21 10:54:07;;;;;;;31.08;16.55;;;;;;;;;;10300575;28;20501;-62
2023/03/21 10:59:09;;;;;;;26.20;15.88;;;;;;;;;;10299821;28;20068;-63
2023/03/21 11:04:08;;;;;;;29.20;14.75;;;;;;;;;;10293875;28;20060;-62
2023/03/21 11:09:08;;;;;;;21.83;15.57;;;;;;;;;;10294998;28;20526;-62
2023/03/21 11:14:20;;;;;;;20.10;14.38;;;;;;;;;;10295670;28;20069;-62
2023/03/21 11:19:19;;;;;;;19.30;15.25;;;;;;;;;;10294902;28;20064;-63
2023/03/21 11:24:18;;;;;;;19.73;14.15;;;;;;;;;;10294839;28;20444;-62
2023/03/21 11:29:29;;;;;;;22.02;13.40;;;;;;;;;;10291800;28;20455;-61
2023/03/21 11:34:30;;;;;;;19.75;13.25;;;;;;;;;;10294919;28;20083;-62
2023/03/21 11:39:31;;;;;;;30.10;18.50;;;;;;;;;;10293874;28;20084;-62
2023/03/21 11:44:32;;;;;;;21.40;14.35;;;;;;;;;;10294045;28;20481;-62
2023/03/21 11:49:30;;;;;;;30.73;16.92;;;;;;;;;;10293816;28;20483;-62
2023/03/21 11:54:31;;;;;;;21.92;13.70;;;;;;;;;;10294997;28;20796;-61
2023/03/21 11:59:37;;;;;;;21.83;14.07;;;;;;;;;;10293785;28;20087;-62
2023/03/21 12:04:39;;;;;;;26.25;15.77;;;;;;;;;;10288680;28;20063;-62
2023/03/21 12:09:40;;;;;;;18.67;14.73;;;;;;;;;;10293386;28;20076;-62
2023/03/21 12:14:45;;;;;;;19.98;15.45;;;;;;;;;;10293896;28;20076;-62
2023/03/21 12:19:50;;;;;;;19.98;14.27;;;;;;;;;;10291859;28;20540;-63
2023/03/21 12:24:50;;;;;;;22.10;13.77;;;;;;;;;;10292218;28;20076;-62
2023/03/21 12:30:13;;;;;;;26.45;15.00;;;;;;;;;;10291994;28;20063;-62
2023/03/21 12:35:18;;;;;;;19.35;13.90;;;;;;;;;;10292367;28;20067;-62
2023/03/21 12:40:21;;;;;;;23.15;16.05;;;;;;;;;;10287415;28;20080;-62
2023/03/21 12:45:22;;;;;;;22.60;15.27;;;;;;;;;;10291019;28;20072;-62
2023/03/21 12:50:24;;;;;;;31.80;14.90;;;;;;;;;;10292021;28;20065;-62
2023/03/21 12:55:25;;;;;;;18.90;13.52;;;;;;;;;;10291306;28;20482;-62
2023/03/21 13:00:26;;;;;;;18.42;13.38;;;;;;;;;;10290933;28;20080;-60
2023/03/21 13:05:27;;;;;;;20.08;13.98;;;;;;;;;;10292335;28;20081;-62
2023/03/21 13:10:25;;;;;;;23.02;14.80;;;;;;;;;;10290220;28;20672;-62
2023/03/21 13:15:39;;;;;;;19.02;12.85;;;;;;;;;;10289194;28;20533;-61
2023/03/21 13:20:42;;;;;;;20.10;12.57;;;;;;;;;;10287288;28;20080;-62
2023/03/21 13:25:42;;;;;;;19.60;13.82;;;;;;;;;;10289900;28;20068;-62
2023/03/21 13:30:41;;;;;;;15.20;12.85;;;;;;;;;;10289055;28;20064;-63
2023/03/21 13:35:41;;;;;;;20.45;14.68;;;;;;;;;;10290129;28;20459;-62
2023/03/21 13:40:42;;;;;;;26.60;17.83;;;;;;;;;;10290486;28;20061;-63
2023/03/21 13:45:51;;;;;;;22.38;17.70;;;;;;;;;;10288826;28;20053;-62
2023/03/21 13:50:53;;;;;;;18.20;14.15;;;;;;;;;;10290223;28;20080;-61
2023/03/21 13:55:59;;;;;;;23.35;15.85;;;;;;;;;;10288425;28;20076;-61
2023/03/21 14:01:19;;;;;;;19.92;15.60;;;;;;;;;;10291067;28;20522;-61
2023/03/21 14:06:19;;;;;;;16.73;13.93;;;;;;;;;;10292949;28;20076;-61
2023/03/21 14:11:18;;;;;;;54.75;41.08;;;;;;;;;;10294439;28;20064;-61
2023/03/21 14:16:17;;;;;;;46.17;35.45;;;;;;;;;;10294212;28;20076;-62
2023/03/21 14:21:16;;;;;;;96.32;75.28;;;;;;;;;;10297312;28;20075;-62
2023/03/21 14:26:22;;;;;;;50.30;44.95;;;;;;;;;;10296536;28;20076;-63
2023/03/21 14:31:22;;;;;;;21.23;16.90;;;;;;;;;;10297352;28;20065;-62
2023/03/21 14:36:23;;;;;;;20.25;16.30;;;;;;;;;;10295890;28;20079;-62
2023/03/21 14:41:24;;;;;;;21.98;12.57;;;;;;;;;;10295427;28;20092;-61
2023/03/21 14:46:22;;;;;;;20.52;13.48;;;;;;;;;;10295895;28;20085;-62
2023/03/21 14:51:22;;;;;;;21.90;14.57;;;;;;;;;;10295051;28;20489;-62
2023/03/21 14:56:22;;;;;;;18.67;13.38;;;;;;;;;;10294766;28;20068;-62
2023/03/21 15:01:27;;;;;;;20.40;15.35;;;;;;;;;;10295048;28;20486;-63
2023/03/21 15:06:26;;;;;;;24.02;16.52;;;;;;;;;;10294182;28;20069;-62
2023/03/21 15:11:29;;;;;;;30.67;19.73;;;;;;;;;;10288937;28;20072;-61
2023/03/21 15:16:29;;;;;;;22.13;16.75;;;;;;;;;;10287927;28;20083;-61
2023/03/21 15:21:30;;;;;;;22.17;17.20;;;;;;;;;;10294589;28;20077;-60
2023/03/21 15:26:30;;;;;;;32.80;22.20;;;;;;;;;;10294207;28;20091;-60
2023/03/21 15:31:31;;;;;;;31.27;23.35;;;;;;;;;;10288587;28;20080;-61
2023/03/21 15:36:32;;;;;;;41.78;26.63;;;;;;;;;;10294924;28;20486;-61
2023/03/21 15:41:31;;;;;;;31.73;23.00;;;;;;;;;;10290460;28;20080;-62
2023/03/21 15:46:40;;;;;;;41.72;28.55;;;;;;;;;;10292912;28;20076;-61
2023/03/21 15:51:40;;;;;;;59.67;34.65;;;;;;;;;;10293995;28;20505;-61
2023/03/21 15:56:41;;;;;;;26.70;18.65;;;;;;;;;;10297828;28;20073;-61
2023/03/21 16:01:40;;;;;;;36.42;30.85;;;;;;;;;;10291463;28;20575;-62
2023/03/21 16:06:50;;;;;;;30.38;21.63;;;;;;;;;;10288701;28;20084;-61
2023/03/21 16:11:49;;;;;;;40.25;29.77;;;;;;;;;;10290173;28;20068;-62
2023/03/21 16:16:49;;;;;;;57.17;37.63;;;;;;;;;;10292916;28;20084;-61
2023/03/21 16:21:47;;;;;;;36.47;24.35;;;;;;;;;;10294139;28;20068;-61
2023/03/21 16:26:49;;;;;;;29.52;21.73;;;;;;;;;;10294609;28;20060;-60
2023/03/21 16:31:49;;;;;;;25.38;19.02;;;;;;;;;;10287754;28;20080;-61
2023/03/21 16:36:47;;;;;;;27.95;17.90;;;;;;;;;;10278744;28;20090;-60
2023/03/21 16:41:45;;;;;;;36.58;21.13;;;;;;;;;;10289651;28;20494;-60
2023/03/21 16:46:45;;;;;;;29.10;20.50;;;;;;;;;;10292396;28;20068;-61
2023/03/21 16:51:45;;;;;;;24.50;18.02;;;;;;;;;;10280281;28;20103;-60
2023/03/21 16:56:47;;;;;;;27.63;20.85;;;;;;;;;;10280568;28;20079;-60
2023/03/21 17:01:46;;;;;;;35.22;21.10;;;;;;;;;;10283844;28;20494;-60
2023/03/21 17:06:48;;;;;;;59.88;35.55;;;;;;;;;;10284646;28;20076;-62
2023/03/21 17:11:46;;;;;;;58.42;37.45;;;;;;;;;;10284703;28;20068;-59
2023/03/21 17:16:45;;;;;;;86.00;59.75;;;;;;;;;;10280912;28;20497;-60
2023/03/21 17:21:43;;;;;;;42.20;29.90;;;;;;;;;;10282691;28;20060;-61
2023/03/21 17:26:43;;;;;;;38.00;24.33;;;;;;;;;;10283354;28;20060;-59
2023/03/21 17:31:41;;;;;;;34.60;25.45;;;;;;;;;;10278119;28;20619;-61
2023/03/21 17:36:40;;;;;;;42.75;36.60;;;;;;;;;;10274651;28;20076;-60
2023/03/21 17:41:39;;;;;;;86.47;66.25;;;;;;;;;;10273451;28;20087;-61
2023/03/21 17:46:39;;;;;;;67.20;53.90;;;;;;;;;;10278639;28;20074;-60
2023/03/21 17:51:37;;;;;;;41.58;26.77;;;;;;;;;;10280935;28;20080;-61
2023/03/21 17:56:38;;;;;;;51.92;38.80;;;;;;;;;;10278770;28;20091;-60
2023/03/21 18:01:37;;;;;;;34.70;26.60;;;;;;;;;;10281728;28;20083;-60
2023/03/21 18:06:37;;;;;;;38.35;24.38;;;;;;;;;;10278961;28;20132;-60
2023/03/21 18:11:35;;;;;;;37.45;24.30;;;;;;;;;;10278550;28;20068;-58
2023/03/21 18:16:33;;;;;;;31.02;22.02;;;;;;;;;;10280027;28;20068;-60
2023/03/21 18:21:31;;;;;;;32.30;24.77;;;;;;;;;;10279291;28;20100;-60
2023/03/21 18:26:31;;;;;;;28.30;22.67;;;;;;;;;;10276935;28;20069;-58
2023/03/21 18:31:29;;;;;;;29.13;23.05;;;;;;;;;;10276854;28;20083;-61
2023/03/21 18:36:27;;;;;;;28.40;22.33;;;;;;;;;;10280494;28;20072;-62
2023/03/21 18:41:26;;;;;;;26.00;21.15;;;;;;;;;;10278573;28;20072;-59
2023/03/21 18:46:26;;;;;;;26.55;21.67;;;;;;;;;;10290945;28;20087;-61
2023/03/21 18:51:24;;;;;;;30.25;23.33;;;;;;;;;;10282562;28;20084;-62
2023/03/21 18:56:22;;;;;;;26.00;21.58;;;;;;;;;;10288605;28;20470;-61
2023/03/21 19:01:42;;;;;;;26.85;20.83;;;;;;;;;;10286606;28;20068;-61
2023/03/21 19:06:40;;;;;;;29.15;22.27;;;;;;;;;;10285958;28;20076;-61
2023/03/21 19:11:40;;;;;;;26.65;22.45;;;;;;;;;;10282993;28;20580;-61
2023/03/21 19:16:40;;;;;;;35.13;24.77;;;;;;;;;;10284721;28;20092;-61
2023/03/21 19:22:00;;;;;;;51.03;32.53;;;;;;;;;;10284227;28;20110;-62
2023/03/21 19:26:58;;;;;;;51.95;31.58;;;;;;;;;;10279761;28;20079;-59
2023/03/21 19:31:56;;;;;;;64.05;36.65;;;;;;;;;;10283807;28;20060;-59
2023/03/21 19:36:56;;;;;;;56.90;34.47;;;;;;;;;;10290491;28;20072;-59
2023/03/21 19:41:56;;;;;;;43.25;30.52;;;;;;;;;;10288577;28;20618;-61
2023/03/21 19:47:12;;;;;;;43.50;29.13;;;;;;;;;;10285185;28;20060;-61
2023/03/21 19:52:12;;;;;;;55.92;35.42;;;;;;;;;;10289889;28;20506;-60
2023/03/21 19:57:11;;;;;;;49.15;32.50;;;;;;;;;;10286555;28;20076;-60
2023/03/21 20:02:11;;;;;;;46.83;30.83;;;;;;;;;;10286230;28;20477;-61
2023/03/21 20:07:31;;;;;;;43.42;27.83;;;;;;;;;;10287538;28;20061;-61
2023/03/21 20:12:32;;;;;;;36.90;23.38;;;;;;;;;;10290032;28;20077;-60
2023/03/21 20:17:30;;;;;;;39.47;23.70;;;;;;;;;;10284369;28;20083;-59
2023/03/21 20:22:28;;;;;;;36.33;21.58;;;;;;;;;;10284070;28;20103;-61
2023/03/21 20:27:48;;;;;;;33.60;22.58;;;;;;;;;;10286381;28;20091;-61
2023/03/21 20:33:07;;;;;;;32.97;21.88;;;;;;;;;;10286706;28;20072;-61
2023/03/21 20:38:05;;;;;;;34.42;22.58;;;;;;;;;;10283282;28;20088;-62
2023/03/21 20:43:04;;;;;;;32.72;22.30;;;;;;;;;;10288798;28;20079;-60
2023/03/21 20:48:25;;;;;;;27.83;20.20;;;;;;;;;;10286357;28;20083;-62
2023/03/21 20:53:24;;;;;;;29.60;20.20;;;;;;;;;;10275198;28;20490;-60
2023/03/21 20:58:24;;;;;;;41.10;23.77;;;;;;;;;;10284708;28;20490;-60
2023/03/21 21:03:43;;;;;;;72.10;36.30;;;;;;;;;;10282146;28;20065;-60
2023/03/21 21:08:41;;;;;;;74.03;34.63;;;;;;;;;;10284838;28;20065;-61
2023/03/21 21:13:41;;;;;;;86.43;39.67;;;;;;;;;;10286173;28;20083;-61
2023/03/21 21:18:39;;;;;;;59.88;32.88;;;;;;;;;;10290012;28;20078;-61
2023/03/21 21:23:38;;;;;;;63.50;33.45;;;;;;;;;;10289640;28;20077;-60
2023/03/21 21:28:37;;;;;;;33.70;24.30;;;;;;;;;;10288665;28;20069;-61
2023/03/21 21:33:37;;;;;;;47.05;30.50;;;;;;;;;;10280252;28;20781;-60
2023/03/21 21:38:36;;;;;;;55.80;42.40;;;;;;;;;;10279230;28;20080;-60
2023/03/21 21:43:34;;;;;;;42.13;32.75;;;;;;;;;;10282951;28;20073;-60
2023/03/21 21:48:33;;;;;;;36.05;25.75;;;;;;;;;;10289532;28;20065;-61
2023/03/21 21:53:35;;;;;;;35.63;24.88;;;;;;;;;;10295403;28;20087;-61
2023/03/21 21:58:37;;;;;;;35.65;25.13;;;;;;;;;;10287102;28;20069;-61
2023/03/21 22:03:39;;;;;;;75.07;52.00;;;;;;;;;;10286317;28;20076;-61
2023/03/21 22:08:46;;;;;;;37.47;27.92;;;;;;;;;;10288907;28;20065;-62
2023/03/21 22:13:44;;;;;;;33.15;26.33;;;;;;;;;;10286946;28;20708;-62
2023/03/21 22:18:42;;;;;;;46.72;33.42;;;;;;;;;;10287200;28;20068;-60
2023/03/21 22:23:41;;;;;;;47.28;34.05;;;;;;;;;;10289305;28;20068;-60
2023/03/21 22:28:40;;;;;;;46.72;32.03;;;;;;;;;;10295536;28;20069;-61
2023/03/21 22:33:40;;;;;;;45.05;33.50;;;;;;;;;;10294062;28;20067;-60
2023/03/21 22:38:40;;;;;;;37.40;28.27;;;;;;;;;;10293789;28;20072;-60
2023/03/21 22:43:40;;;;;;;32.20;24.70;;;;;;;;;;10294302;28;20073;-61
2023/03/21 22:48:38;;;;;;;27.92;24.50;;;;;;;;;;10294712;28;20550;-61
2023/03/21 22:53:39;;;;;;;30.02;23.23;;;;;;;;;;10294237;28;20500;-61
2023/03/21 22:58:37;;;;;;;28.17;23.92;;;;;;;;;;10294530;28;20549;-62
2023/03/21 23:03:37;;;;;;;35.38;25.65;;;;;;;;;;10293152;28;20072;-61
2023/03/21 23:08:35;;;;;;;29.08;24.58;;;;;;;;;;10294762;28;20095;-60
2023/03/21 23:13:33;;;;;;;33.83;28.60;;;;;;;;;;10294789;28;20073;-61
2023/03/21 23:18:32;;;;;;;35.75;29.83;;;;;;;;;;10293532;28;20462;-61
2023/03/21 23:23:35;;;;;;;38.90;31.10;;;;;;;;;;10289959;28;20502;-61
2023/03/21 23:28:33;;;;;;;50.50;40.50;;;;;;;;;;10291666;28;20466;-61
2023/03/21 23:33:31;;;;;;;46.05;36.55;;;;;;;;;;10291420;28;20088;-61
2023/03/21 23:38:29;;;;;;;46.85;34.42;;;;;;;;;;10293061;28;20087;-59
2023/03/21 23:43:29;;;;;;;48.63;32.70;;;;;;;;;;10292918;28;20068;-62
2023/03/21 23:48:27;;;;;;;36.30;29.85;;;;;;;;;;10293585;28;20083;-61
2023/03/21 23:53:25;;;;;;;44.08;31.45;;;;;;;;;;10295777;28;20467;-61
2023/03/21 23:58:24;;;;;;;37.47;29.40;;;;;;;;;;10292712;28;20467;-62
